• Join FlightAware (Why Join?)
  • Login
  • US Flag 
07:39PM EDT


 

Airport Tracker/Info


-or-


 

Live Flight TrackerFlight Track Log ✈ N855TA ✈ 29-Jun-2013 ✈ KEQY - KHXD

Flight Track Log - Related Links

Times and Time Zones

All times are in EDT time to prevent confusion due to time zone crossing. See the N855TA flight status page for this flight to view local times or setup timezone preferences in your user account.

Time Position Orientation Groundspeed Altitude Reporting Facility
EDT Latitude Longitude Course Direction KTS MPH feet Rate Location/Type
10:27AM 34.7522 -80.6789 180° South 165 190 4,000  Level Atlanta Center
10:28AM 34.6833 -80.6792 180° South 178 205 4,300 180 Climbing Atlanta Center
10:30AM 34.6359 -80.6795 182° South  Level Estimated
10:37AM 34.3514 -80.6766 180° South  Level FlightAware Approximate
10:38AM 34.3107 -80.6762 180° South  Level FlightAware Approximate
10:39AM 34.2701 -80.6758 180° South  Level FlightAware Approximate
10:40AM 34.2294 -80.6754 180° South  Level FlightAware Approximate
10:41AM 34.1888 -80.6750 180° South  Level FlightAware Approximate
10:42AM 34.1481 -80.6746 180° South  Level FlightAware Approximate
10:43AM 34.1075 -80.6741 180° South  Level FlightAware Approximate
10:44AM 34.0668 -80.6737 180° South  Level FlightAware Approximate
10:45AM 34.0262 -80.6733 180° South  Level FlightAware Approximate
10:46AM 33.9855 -80.6729 180° South  Level FlightAware Approximate
10:47AM 33.9449 -80.6725 180° South  Level FlightAware Approximate
10:48AM 33.9042 -80.6721 180° South  Level FlightAware Approximate
10:49AM 33.8636 -80.6717 180° South  Level FlightAware Approximate
10:50AM 33.8229 -80.6713 180° South  Level FlightAware Approximate
10:51AM 33.7823 -80.6709 180° South  Level FlightAware Approximate
10:52AM 33.7416 -80.6704 180° South  Level FlightAware Approximate
10:53AM 33.7010 -80.6700 180° South  Level FlightAware Approximate
10:54AM 33.6603 -80.6696 180° South  Level FlightAware Approximate
10:55AM 33.6197 -80.6692 180° South  Level FlightAware Approximate
10:56AM 33.5790 -80.6688 180° South  Level FlightAware Approximate
10:57AM 33.5384 -80.6684 180° South  Level FlightAware Approximate
10:58AM 33.4977 -80.6680 180° South  Level FlightAware Approximate
10:59AM 33.4571 -80.6676 180° South  Level FlightAware Approximate
11:00AM 33.4164 -80.6672 180° South  Level FlightAware Approximate
11:01AM 33.3758 -80.6668 180° South  Level FlightAware Approximate
11:02AM 33.3358 -80.6667 180° South  Level FlightAware Approximate
11:03AM 33.2951 -80.6667 180° South  Level FlightAware Approximate
11:04AM 33.2545 -80.6667 180° South  Level FlightAware Approximate
11:05AM 33.2138 -80.6667 180° South  Level FlightAware Approximate
11:06AM 33.1732 -80.6667 180° South  Level FlightAware Approximate
11:07AM 33.1325 -80.6667 180° South  Level FlightAware Approximate
11:08AM 33.0919 -80.6667 180° South  Level FlightAware Approximate
11:09AM 33.0512 -80.6667 180° South  Level FlightAware Approximate
11:10AM 33.0106 -80.6667 180° South  Level FlightAware Approximate
11:11AM 32.9699 -80.6667 180° South  Level FlightAware Approximate
11:12AM 32.9293 -80.6667 180° South  Level FlightAware Approximate
11:13AM 32.8886 -80.6667 180° South  Level FlightAware Approximate
11:14AM 32.8481 -80.6687 185° South  Level FlightAware Approximate
11:15AM 32.8076 -80.6732 185° South  Level FlightAware Approximate
11:16AM 32.7671 -80.6777 185° South  Level FlightAware Approximate
11:17AM 32.7267 -80.6822 185° South  Level FlightAware Approximate
11:18AM 32.6860 -80.6833 180° South  Level FlightAware Approximate
11:19AM 32.6454 -80.6833 180° South  Level FlightAware Approximate
11:20AM 32.6047 -80.6833 180° South  Level FlightAware Approximate
11:21AM 32.5641 -80.6833 180° South  Level FlightAware Approximate
11:22AM 32.5234 -80.6833 180° South  Level FlightAware Approximate
11:23AM 32.4828 -80.6833 180° South  Level FlightAware Approximate
11:24AM 32.4421 -80.6833 180° South  Level FlightAware Approximate
11:25AM 32.4015 -80.6833 180° South  Level FlightAware Approximate
11:26AM 32.3608 -80.6833 180° South  Level FlightAware Approximate
11:27AM 32.3202 -80.6833 180° South  Level FlightAware Approximate
11:28AM 32.2795 -80.6833 180° South  Level FlightAware Approximate
11:29AM 32.2389 -80.6833 180° South  Level FlightAware Approximate
11:30AM 32.2167 -80.6833 North  Level FlightAware Approximate
11:31AM 32.2244 -80.6975 North  Level Estimated
11:32AM 32.2244 -80.6975 North  Level Estimated
11:33AM 32.2244 -80.6975 North  Level Estimated